Auburn, ME

4:34 PM EST on January 30, 2015 (GMT -0500)
Riverside | Change Station
CLOSE
Current Station
Personal Weather Station
Location: Lewiston, ME
Elevation: 217 ft
Nearby Weather Stations
Active Advisory: Winter Storm Warning Active Notice: Public Information Statement

Elev 217 ft 44.11 °N, 70.21 °W | Updated 8 seconds ago

Snow
Snow
28.0 °F
Feels Like 28 °F
N
0.0
Wind Variable Wind from SE
Gusts 0.0 mph

Today
High -- | Low -- °F
--% Chance of Precip.
Yesterday
High -- | Low -- °F
Precip. -- in
7:01 AM 4:48 PM
Waxing Gibbous, 85% visible
Pressure 29.70 in
Visibility 1.2 miles
Clouds Scattered Clouds 800 ft
Overcast 1700 ft
Windchill 28 °F
Dew Point 27 °F
Humidity 97%
Rainfall 0.00 in
Snow Depth Not available.
UV 0 out of 12
Pollen .10 out of 12
Air Quality Not available.
Flu Activity Not available.
METAR KLEW 302115Z AUTO 33006KT 1 1/4SM SCT008 OVC017 M02/M03 A2970 RMK AO1 P0001

More Conditions Fewer Conditions

Pressure 29.70 in
Visibility 1.2 miles
Clouds Scattered Clouds 800 ft
Overcast 1700 ft
Windchill 28 °F
Dew Point 27 °F
Humidity 97%
Rainfall 0.00 in
Snow Depth Not available.
UV 0 out of 12
Pollen .10 out of 12
Air Quality Not available.
Flu Activity Not available.
METAR KLEW 302115Z AUTO 33006KT 1 1/4SM SCT008 OVC017 M02/M03 A2970 RMK AO1 P0001

More Conditions Fewer Conditions

10-Day Weather Forecast

Almanac

Astronomy

Jan. 30, 2015 Rise Set
Actual Time
Civil Twilight
Nautical Twilight
Astronomical Twilight
Moon
Length of Visible Light
Length of Day
Tomorrow will be .
, % of the Moon is Illuminated

Today's Extremes

State Highs State Lows

Community

WunderPhotos

Upload Photos

1,791,897 photos uploaded!

WunderBlogs® & News

Nearby

Air Quality

  Air Quality AQ Index Pollutant
Not available.

Snow Depth

Station Depth Elevation

Earthquake Activity

City Distance Mag. Time & Date
Minimum magnitude displayed is 2.5.

Coastal Water Temperatures

Place Temperature

Nearby Weather Stations